Time;durP1;ratioP1;P1;durP2;ratioP2;P2;SDS_P1;SDS_P2;PMS_P1;PMS_P2;Temp;Humidity;BMP_temperature;BMP_pressure;BME280_temperature;BME280_humidity;BME280_pressure;Samples;Min_cycle;Max_cycle;Signal;HPM_P1;HPM_P2
2022/05/24 00:02:27;;;;;;;4.70;2.92;;;22.40;46.30;;;;;;6282053;27;80754;-64
2022/05/24 00:05:28;;;;;;;4.05;2.28;;;22.40;46.40;;;;;;6285956;27;80800;-67
2022/05/24 00:08:28;;;;;;;4.47;2.65;;;22.40;46.40;;;;;;6284400;27;80618;-67
2022/05/24 00:11:29;;;;;;;2.70;1.95;;;22.40;46.40;;;;;;6285990;27;80640;-67
2022/05/24 00:17:51;;;;;;;4.70;2.78;;;22.40;46.40;;;;;;6284932;27;80307;-66
2022/05/24 00:20:51;;;;;;;4.80;2.40;;;22.40;46.40;;;;;;6285623;27;80817;-66
2022/05/24 00:23:53;;;;;;;8.00;2.60;;;22.30;46.30;;;;;;6280452;27;80710;-66
2022/05/24 00:26:54;;;;;;;8.50;3.30;;;22.40;46.40;;;;;;6275526;27;81443;-66
2022/05/24 00:29:54;;;;;;;3.58;2.60;;;22.30;46.40;;;;;;6283459;27;83808;-67
2022/05/24 00:32:55;;;;;;;4.15;2.65;;;22.30;46.30;;;;;;6283762;27;81018;-66
2022/05/24 00:35:55;;;;;;;5.90;3.05;;;22.30;46.30;;;;;;6285513;27;81371;-66
2022/05/24 00:38:55;;;;;;;3.33;2.20;;;22.30;46.40;;;;;;6283106;27;80529;-66
2022/05/24 00:41:56;;;;;;;3.80;2.60;;;22.30;46.90;;;;;;6285487;27;81007;-67
2022/05/24 00:44:58;;;;;;;5.32;3.17;;;22.30;46.40;;;;;;6285231;27;80173;-67
2022/05/24 00:47:58;;;;;;;5.53;2.72;;;22.30;47.00;;;;;;6283135;27;83442;-66
2022/05/24 00:50:59;;;;;;;5.10;2.53;;;22.30;46.40;;;;;;6285325;27;80111;-67
2022/05/24 00:53:59;;;;;;;4.03;2.33;;;22.30;46.40;;;;;;6282008;27;80895;-65
2022/05/24 00:57:00;;;;;;;4.30;2.35;;;22.30;46.40;;;;;;6284784;27;80920;-65
2022/05/24 01:00:00;;;;;;;3.75;2.15;;;22.30;46.40;;;;;;6284571;27;80646;-65
2022/05/24 01:03:00;;;;;;;3.42;2.30;;;22.30;46.40;;;;;;6275564;27;80850;-66
2022/05/24 01:06:01;;;;;;;6.30;2.63;;;22.30;46.40;;;;;;6280432;27;80882;-66
2022/05/24 01:09:01;;;;;;;4.63;2.90;;;22.30;46.50;;;;;;6285100;27;80724;-66
2022/05/24 01:12:02;;;;;;;4.15;2.47;;;22.30;46.50;;;;;;6284728;27;80481;-66
2022/05/24 01:15:02;;;;;;;3.72;2.15;;;22.20;46.50;;;;;;6282982;27;83136;-65
2022/05/24 01:18:03;;;;;;;3.65;2.40;;;22.20;46.40;;;;;;6276074;27;81210;-65
2022/05/24 01:21:03;;;;;;;3.38;2.45;;;22.30;46.60;;;;;;6282066;27;81572;-66
2022/05/24 01:24:04;;;;;;;3.00;2.13;;;22.20;46.50;;;;;;6284037;27;80591;-65
2022/05/24 01:27:04;;;;;;;5.35;2.35;;;22.20;46.60;;;;;;6284047;27;80463;-66
2022/05/24 01:30:05;;;;;;;2.85;2.30;;;22.20;46.60;;;;;;6284324;27;80353;-66
2022/05/24 01:36:25;;;;;;;4.15;2.80;;;22.20;46.70;;;;;;6280202;27;81327;-66
2022/05/24 01:39:25;;;;;;;9.07;2.22;;;22.20;46.70;;;;;;6282240;27;80974;-66
2022/05/24 01:42:26;;;;;;;4.10;2.40;;;22.20;46.70;;;;;;6283572;27;80999;-66
2022/05/24 01:45:26;;;;;;;4.03;2.30;;;22.20;46.70;;;;;;6282268;27;80811;-66
2022/05/24 01:48:27;;;;;;;4.97;2.25;;;22.20;46.70;;;;;;6284312;27;80488;-66
2022/05/24 01:51:27;;;;;;;4.38;2.65;;;22.20;46.70;;;;;;6282902;27;80703;-66
2022/05/24 01:54:28;;;;;;;3.63;2.20;;;22.20;46.70;;;;;;6283816;27;80366;-66
2022/05/24 01:57:28;;;;;;;3.70;2.42;;;22.20;46.80;;;;;;6283615;27;80469;-65
2022/05/24 02:00:29;;;;;;;3.65;2.72;;;22.20;46.80;;;;;;6282862;27;80314;-65
2022/05/24 02:03:30;;;;;;;3.30;2.63;;;22.20;46.90;;;;;;6283108;27;80502;-65
2022/05/24 02:06:31;;;;;;;3.35;2.38;;;22.20;46.80;;;;;;6281217;27;81511;-66
2022/05/24 02:09:31;;;;;;;4.38;2.25;;;22.10;46.80;;;;;;6283703;27;81712;-66
2022/05/24 02:12:38;;;;;;;2.83;2.10;;;22.20;46.90;;;;;;6237110;27;75233;-65
2022/05/24 02:15:39;;;;;;;2.97;2.30;;;22.10;46.90;;;;;;6212798;28;80496;-65
2022/05/24 02:18:40;;;;;;;5.13;2.70;;;22.20;46.90;;;;;;6228090;28;80365;-65
2022/05/24 02:21:40;;;;;;;3.50;2.38;;;22.10;46.90;;;;;;6228346;28;80829;-65
2022/05/24 02:24:41;;;;;;;3.88;2.75;;;22.10;46.90;;;;;;6228140;28;85551;-65
2022/05/24 02:27:43;;;;;;;3.30;2.28;;;22.10;46.90;;;;;;6228001;28;80282;-65
2022/05/24 02:30:43;;;;;;;3.63;2.30;;;22.10;47.20;;;;;;6228028;28;81442;-65
2022/05/24 02:33:44;;;;;;;4.45;2.70;;;22.10;46.90;;;;;;6218308;28;80286;-66
2022/05/24 02:36:44;;;;;;;2.92;2.08;;;22.10;46.90;;;;;;6210593;28;80405;-66
2022/05/24 02:43:04;;;;;;;3.90;2.35;;;22.00;46.90;;;;;;6202526;28;85102;-65
2022/05/24 02:46:04;;;;;;;3.90;2.80;;;22.00;46.90;;;;;;6203039;28;80315;-65
2022/05/24 02:49:05;;;;;;;3.33;2.60;;;22.00;46.90;;;;;;6202701;28;80592;-65
2022/05/24 02:52:05;;;;;;;3.45;2.63;;;22.00;47.00;;;;;;6202470;28;81517;-65
2022/05/24 02:55:06;;;;;;;2.67;2.47;;;22.00;47.10;;;;;;6202650;28;81065;-65
2022/05/24 02:58:07;;;;;;;3.70;2.20;;;22.00;47.00;;;;;;6206005;28;81275;-65
2022/05/24 03:01:08;;;;;;;3.40;2.33;;;22.00;47.10;;;;;;6252664;28;80355;-64
2022/05/24 03:04:09;;;;;;;1.95;1.73;;;22.00;47.10;;;;;;6233771;28;80635;-64
2022/05/24 03:10:28;;;;;;;4.20;2.38;;;22.00;47.10;;;;;;6249847;27;80394;-65
2022/05/24 03:16:48;;;;;;;4.97;3.28;;;22.00;47.20;;;;;;6251604;28;81795;-64
2022/05/24 03:19:51;;;;;;;4.13;2.67;;;22.00;47.10;;;;;;6252178;28;81110;-65
2022/05/24 03:22:52;;;;;;;3.53;2.25;;;22.00;47.20;;;;;;6243541;28;80410;-65
2022/05/24 03:25:54;;;;;;;4.00;2.80;;;21.90;47.10;;;;;;6250669;28;80490;-65
2022/05/24 03:28:54;;;;;;;6.38;2.83;;;22.00;47.20;;;;;;6235139;28;80971;-66
2022/05/24 03:31:55;;;;;;;3.67;2.63;;;22.00;47.20;;;;;;6234276;28;80592;-66
2022/05/24 03:34:55;;;;;;;7.63;2.65;;;22.00;47.80;;;;;;6234870;28;80657;-65
2022/05/24 03:37:56;;;;;;;3.15;2.33;;;22.00;47.20;;;;;;6235110;28;80211;-65
2022/05/24 03:40:56;;;;;;;5.38;2.50;;;21.90;47.20;;;;;;6234460;28;81399;-65
2022/05/24 03:43:57;;;;;;;3.65;2.50;;;21.90;47.10;;;;;;6235202;28;80374;-65
2022/05/24 03:46:58;;;;;;;5.25;3.08;;;21.90;47.10;;;;;;6235030;28;81337;-66
2022/05/24 03:49:58;;;;;;;3.17;2.33;;;21.90;47.20;;;;;;6234864;28;80446;-65
2022/05/24 03:52:59;;;;;;;6.00;2.70;;;22.00;47.20;;;;;;6241154;28;80460;-66
2022/05/24 03:55:59;;;;;;;3.45;2.70;;;21.90;47.20;;;;;;6234512;28;80561;-66
2022/05/24 03:59:00;;;;;;;3.15;2.15;;;21.90;47.20;;;;;;6234219;28;80292;-65
2022/05/24 04:02:00;;;;;;;3.97;2.78;;;21.90;47.20;;;;;;6216634;28;80434;-65
2022/05/24 04:05:01;;;;;;;3.85;2.80;;;21.90;47.20;;;;;;6234541;28;81072;-65
2022/05/24 04:08:01;;;;;;;3.38;2.50;;;21.90;47.20;;;;;;6234878;28;81048;-66
2022/05/24 04:11:02;;;;;;;6.10;2.83;;;21.90;47.20;;;;;;6234068;28;80623;-66
2022/05/24 04:14:03;;;;;;;3.17;2.53;;;21.90;47.10;;;;;;6234260;28;81433;-66
2022/05/24 04:17:04;;;;;;;5.97;3.10;;;21.90;47.20;;;;;;6232666;28;80376;-68
2022/05/24 04:20:04;;;;;;;5.20;2.53;;;21.90;47.30;;;;;;6233647;27;80765;-64
2022/05/24 04:23:05;;;;;;;3.45;2.53;;;21.90;47.30;;;;;;6225828;28;80399;-64
2022/05/24 04:26:05;;;;;;;4.05;2.90;;;21.90;47.60;;;;;;6215223;28;81605;-64
2022/05/24 04:29:06;;;;;;;4.43;2.42;;;22.00;48.30;;;;;;6232591;28;81360;-64
2022/05/24 04:32:06;;;;;;;12.57;2.88;;;22.10;48.30;;;;;;6234197;28;80549;-65
2022/05/24 04:35:07;;;;;;;5.35;2.65;;;22.20;48.80;;;;;;6233135;28;80470;-65
2022/05/24 04:38:07;;;;;;;6.50;2.28;;;22.20;49.10;;;;;;6233721;28;80590;-65
2022/05/24 04:44:27;;;;;;;4.95;2.30;;;22.30;48.90;;;;;;6233270;28;80288;-70
2022/05/24 04:47:31;;;;;;;4.78;2.97;;;22.40;49.40;;;;;;6226314;28;81858;-70
2022/05/24 04:50:31;;;;;;;5.15;2.35;;;22.40;48.40;;;;;;6233682;28;80424;-66
2022/05/24 04:53:32;;;;;;;3.33;2.45;;;22.40;49.10;;;;;;6233701;28;80380;-68
2022/05/24 04:56:38;;;;;;;2.92;2.17;;;22.40;51.90;;;;;;6224043;28;80864;-68
2022/05/24 04:59:38;;;;;;;2.63;2.20;;;22.50;50.10;;;;;;6233541;28;80513;-69
2022/05/24 05:02:39;;;;;;;5.35;2.58;;;22.50;51.30;;;;;;6232669;28;82334;-67
2022/05/24 05:05:39;;;;;;;8.90;2.55;;;22.50;52.70;;;;;;6217652;28;80108;-67
2022/05/24 05:08:40;;;;;;;3.92;2.55;;;22.60;52.90;;;;;;6233451;28;80310;-67
2022/05/24 05:11:40;;;;;;;6.63;2.63;;;22.60;52.90;;;;;;6176942;28;81648;-67
2022/05/24 05:14:41;;;;;;;4.75;2.35;;;22.60;51.90;;;;;;6197957;28;80580;-68
2022/05/24 05:17:44;;;;;;;7.13;2.22;;;22.70;52.70;;;;;;6183135;28;80420;-66
2022/05/24 05:20:45;;;;;;;2.58;1.98;;;22.70;53.50;;;;;;6183891;28;80920;-68
2022/05/24 05:23:45;;;;;;;3.13;2.30;;;22.70;54.50;;;;;;6183330;28;80413;-68
2022/05/24 05:26:46;;;;;;;5.38;2.35;;;22.70;53.00;;;;;;6184682;28;80555;-63
2022/05/24 05:33:08;;;;;;;5.68;3.63;;;22.70;52.30;;;;;;6179502;28;80335;-65
2022/05/24 05:36:09;;;;;;;7.72;2.92;;;22.60;50.10;;;;;;6198273;28;83506;-69
2022/05/24 05:39:09;;;;;;;7.07;3.08;;;22.50;50.40;;;;;;6188271;28;80546;-64
2022/05/24 05:42:10;;;;;;;5.15;2.80;;;22.60;51.20;;;;;;6187366;28;80802;-64
2022/05/24 05:45:11;;;;;;;5.22;2.90;;;22.60;50.60;;;;;;6183054;28;81452;-65
2022/05/24 05:48:12;;;;;;;6.88;3.00;;;22.60;50.30;;;;;;6183186;28;80291;-65
2022/05/24 05:51:12;;;;;;;6.68;2.72;;;22.70;50.40;;;;;;6182800;28;80354;-66
2022/05/24 05:54:13;;;;;;;4.10;2.65;;;22.70;50.40;;;;;;6185720;28;81060;-66
2022/05/24 05:57:13;;;;;;;5.97;3.00;;;22.80;50.60;;;;;;6182901;28;80627;-65
2022/05/24 06:00:14;;;;;;;10.32;3.00;;;22.80;50.50;;;;;;6182222;28;81718;-64
2022/05/24 06:03:20;;;;;;;7.88;3.63;;;22.80;50.30;;;;;;6181370;28;80465;-65
2022/05/24 06:06:21;;;;;;;8.20;3.88;;;22.60;49.40;;;;;;6182985;28;80150;-64
2022/05/24 06:09:21;;;;;;;10.73;3.83;;;22.60;49.60;;;;;;6182990;28;81039;-64
2022/05/24 06:12:22;;;;;;;9.75;4.05;;;22.50;49.20;;;;;;6228042;28;81579;-66
2022/05/24 06:15:25;;;;;;;10.07;3.30;;;22.50;49.50;;;;;;6231916;28;81500;-66
2022/05/24 06:18:26;;;;;;;6.75;3.28;;;22.40;49.30;;;;;;6231185;28;80223;-65
2022/05/24 06:21:26;;;;;;;8.48;4.00;;;22.40;49.50;;;;;;6232221;28;81532;-65
2022/05/24 06:24:27;;;;;;;9.15;3.90;;;22.30;49.60;;;;;;6232655;28;80259;-65
2022/05/24 06:27:27;;;;;;;8.07;3.92;;;22.30;49.80;;;;;;6231685;28;80343;-65
2022/05/24 06:30:28;;;;;;;5.63;3.72;;;22.30;50.10;;;;;;6231828;28;80371;-66
2022/05/24 06:33:29;;;;;;;10.20;4.05;;;22.40;50.00;;;;;;6231925;28;81206;-64
2022/05/24 06:36:30;;;;;;;9.90;4.05;;;22.50;49.90;;;;;;6231661;28;80410;-63
2022/05/24 06:39:30;;;;;;;9.88;3.05;;;22.50;50.00;;;;;;6210404;28;81632;-63
2022/05/24 06:42:31;;;;;;;7.15;3.47;;;22.50;50.50;;;;;;6232000;28;80322;-65
2022/05/24 06:45:31;;;;;;;5.05;3.13;;;22.50;50.70;;;;;;6212935;28;83442;-63
2022/05/24 06:48:32;;;;;;;8.50;3.20;;;22.50;51.20;;;;;;6232084;28;80135;-64
2022/05/24 06:51:32;;;;;;;11.25;3.70;;;22.50;51.90;;;;;;6231420;28;80397;-64
2022/05/24 06:54:33;;;;;;;11.70;4.85;;;22.50;51.70;;;;;;6231132;28;80480;-64
2022/05/24 06:57:33;;;;;;;10.27;3.85;;;22.40;52.60;;;;;;6233113;28;80661;-65
2022/05/24 07:03:53;;;;;;;12.88;3.55;;;22.60;52.30;;;;;;6235457;28;80500;-63
2022/05/24 07:06:56;;;;;;;68.93;32.00;;;22.60;54.00;;;;;;6235729;28;80869;-63
2022/05/24 07:09:56;;;;;;;155.50;65.47;;;22.70;54.00;;;;;;6227040;28;82982;-63
2022/05/24 07:12:57;;;;;;;274.52;122.50;;;22.80;54.30;;;;;;6228844;28;82986;-63
2022/05/24 07:15:57;;;;;;;239.45;102.78;;;22.80;54.00;;;;;;6211924;28;85975;-63
2022/05/24 07:18:58;;;;;;;245.10;105.82;;;22.80;53.90;;;;;;6230392;27;86579;-63
2022/05/24 07:21:59;;;;;;;439.83;191.43;;;22.80;53.60;;;;;;6227848;28;85930;-63
2022/05/24 07:24:59;;;;;;;505.38;235.35;;;22.80;53.50;;;;;;6229289;28;86536;-63
2022/05/24 07:28:00;;;;;;;370.42;157.35;;;22.80;53.40;;;;;;6229652;28;85363;-64
2022/05/24 07:31:00;;;;;;;321.85;136.45;;;22.80;53.20;;;;;;6228761;28;85664;-63
2022/05/24 07:34:01;;;;;;;256.15;108.32;;;22.90;52.90;;;;;;6228613;28;85387;-62
2022/05/24 07:37:01;;;;;;;240.43;102.97;;;22.90;52.60;;;;;;6218875;28;86849;-65
2022/05/24 07:46:41;;;;;;;161.45;69.00;;;23.00;52.60;;;;;;6225378;28;83144;-64
2022/05/24 07:49:41;;;;;;;155.85;65.32;;;23.00;52.30;;;;;;6233091;28;84040;-64
2022/05/24 07:52:42;;;;;;;130.55;54.60;;;23.00;53.00;;;;;;6213344;28;83246;-64
2022/05/24 07:55:44;;;;;;;106.90;48.78;;;23.00;52.30;;;;;;6231409;28;84228;-62
2022/05/24 07:58:44;;;;;;;113.03;45.95;;;23.10;52.40;;;;;;6232835;28;83250;-64
2022/05/24 08:01:45;;;;;;;103.63;41.35;;;23.00;52.20;;;;;;6221372;27;84893;-62
2022/05/24 08:04:45;;;;;;;87.30;37.58;;;23.00;52.10;;;;;;6231162;28;83413;-63
2022/05/24 08:07:46;;;;;;;89.45;34.92;;;23.10;52.20;;;;;;6231177;28;82956;-62
2022/05/24 08:10:46;;;;;;;83.47;32.13;;;23.10;52.30;;;;;;6223766;28;84327;-62
2022/05/24 08:13:47;;;;;;;65.28;29.33;;;23.10;52.00;;;;;;6218757;28;84291;-62
2022/05/24 08:16:47;;;;;;;67.05;26.15;;;23.10;52.20;;;;;;6215935;28;83620;-63
2022/05/24 08:19:48;;;;;;;52.10;22.13;;;23.20;52.10;;;;;;6226091;28;83118;-62
2022/05/24 08:22:48;;;;;;;51.88;23.27;;;23.20;52.80;;;;;;6223880;28;84219;-63
2022/05/24 08:25:49;;;;;;;60.10;23.15;;;23.20;52.20;;;;;;6229585;28;83584;-63
2022/05/24 08:28:50;;;;;;;50.13;19.00;;;23.20;52.20;;;;;;6225641;28;82998;-63
2022/05/24 08:31:51;;;;;;;46.03;18.33;;;23.20;52.10;;;;;;6230077;28;88953;-64
2022/05/24 08:34:52;;;;;;;47.28;19.23;;;23.20;52.10;;;;;;6230691;28;82934;-64
2022/05/24 08:37:52;;;;;;;32.90;16.52;;;23.30;51.80;;;;;;6230876;28;83152;-63
2022/05/24 08:40:53;;;;;;;44.85;17.67;;;23.30;51.60;;;;;;6230885;28;83322;-62
2022/05/24 08:43:53;;;;;;;47.67;14.30;;;23.30;51.70;;;;;;6230535;28;83511;-62
2022/05/24 08:50:13;;;;;;;34.47;15.10;;;23.40;52.30;;;;;;6230455;28;83109;-65
2022/05/24 08:53:14;;;;;;;25.33;11.68;;;23.40;51.70;;;;;;6230350;28;82975;-63
2022/05/24 08:56:14;;;;;;;37.38;12.85;;;23.40;51.70;;;;;;6223176;28;83250;-64
2022/05/24 08:59:15;;;;;;;25.65;11.77;;;23.40;51.90;;;;;;6228068;28;83025;-64
2022/05/24 09:02:16;;;;;;;29.48;12.23;;;23.50;51.90;;;;;;6230357;28;83018;-65
2022/05/24 09:05:16;;;;;;;30.25;11.68;;;23.50;51.80;;;;;;6230535;28;83673;-64
2022/05/24 09:08:17;;;;;;;27.25;10.30;;;23.50;51.80;;;;;;6230557;28;83246;-66
2022/05/24 09:11:17;;;;;;;36.60;10.82;;;23.40;51.80;;;;;;6229705;28;83779;-67
2022/05/24 09:14:18;;;;;;;23.23;8.85;;;23.40;51.80;;;;;;6230302;28;83587;-66
2022/05/24 09:17:18;;;;;;;24.60;9.05;;;23.40;52.30;;;;;;6233458;28;82190;-65
2022/05/24 09:20:19;;;;;;;19.77;8.23;;;23.40;51.70;;;;;;6232806;28;81597;-66
2022/05/24 09:23:19;;;;;;;21.73;7.55;;;23.40;51.70;;;;;;6233873;28;80654;-66
2022/05/24 09:26:24;;;;;;;15.95;6.88;;;23.40;51.60;;;;;;6223260;28;80172;-66
2022/05/24 09:29:25;;;;;;;14.70;5.88;;;23.40;51.60;;;;;;6223847;28;80234;-65
2022/05/24 09:32:26;;;;;;;16.67;6.78;;;23.40;52.10;;;;;;6233262;28;80272;-65
2022/05/24 09:35:26;;;;;;;20.70;5.97;;;23.40;52.30;;;;;;6233812;28;80581;-67
2022/05/24 09:38:27;;;;;;;18.58;5.95;;;23.50;52.40;;;;;;6233901;28;80345;-67
2022/05/24 09:41:27;;;;;;;17.80;5.38;;;23.50;52.70;;;;;;6216258;28;80223;-66
2022/05/24 09:44:28;;;;;;;8.80;5.10;;;23.50;52.30;;;;;;6233343;28;80441;-65
2022/05/24 09:47:29;;;;;;;14.93;4.95;;;23.50;52.20;;;;;;6232418;28;80756;-66
2022/05/24 09:50:30;;;;;;;12.18;5.35;;;23.50;52.10;;;;;;6233102;28;80860;-67
2022/05/24 09:53:30;;;;;;;13.02;5.00;;;23.50;52.20;;;;;;6232799;28;80409;-68
2022/05/24 09:56:33;;;;;;;18.42;5.32;;;23.50;52.50;;;;;;6232926;28;80302;-68
2022/05/24 09:59:33;;;;;;;16.95;5.45;;;23.50;52.60;;;;;;6214632;28;81950;-67
2022/05/24 10:02:34;;;;;;;25.95;7.22;;;23.50;53.90;;;;;;6232849;28;81882;-67
2022/05/24 10:05:35;;;;;;;17.08;6.93;;;23.50;55.00;;;;;;6233495;28;80620;-68
2022/05/24 10:08:36;;;;;;;22.60;8.90;;;23.50;54.90;;;;;;6234124;28;81694;-68
2022/05/24 10:11:37;;;;;;;21.58;7.30;;;23.50;55.80;;;;;;6231941;28;81587;-67
2022/05/24 10:14:37;;;;;;;24.30;8.40;;;23.50;55.40;;;;;;6222268;28;80483;-67
2022/05/24 10:17:38;;;;;;;16.20;6.20;;;23.50;55.30;;;;;;6226391;28;80892;-67
2022/05/24 10:20:39;;;;;;;20.80;7.57;;;23.50;55.40;;;;;;6214646;28;80420;-67
2022/05/24 10:23:41;;;;;;;15.63;6.22;;;23.50;55.40;;;;;;6232258;28;80509;-68
2022/05/24 10:26:41;;;;;;;14.95;7.65;;;23.50;55.70;;;;;;6232859;28;81273;-65
2022/05/24 10:29:42;;;;;;;20.08;8.95;;;23.50;55.50;;;;;;6232422;28;80468;-66
2022/05/24 10:39:21;;;;;;;20.88;10.13;;;23.50;57.10;;;;;;6240370;28;80588;-67
2022/05/24 10:42:21;;;;;;;30.58;11.70;;;23.50;57.10;;;;;;6232951;28;82782;-65
2022/05/24 10:45:22;;;;;;;36.85;13.07;;;23.50;57.40;;;;;;6230274;28;84509;-64
2022/05/24 10:48:22;;;;;;;36.72;13.68;;;23.60;57.10;;;;;;6232379;28;83264;-66
2022/05/24 10:51:23;;;;;;;36.15;13.55;;;23.50;57.90;;;;;;6232329;28;83055;-64
2022/05/24 10:54:23;;;;;;;40.80;13.63;;;23.60;57.20;;;;;;6231901;28;83102;-63
2022/05/24 10:57:24;;;;;;;44.53;14.18;;;23.60;57.00;;;;;;6232382;28;83023;-63
2022/05/24 11:00:24;;;;;;;31.15;12.02;;;23.70;56.70;;;;;;6231885;28;83034;-64
2022/05/24 11:03:25;;;;;;;35.45;12.63;;;23.70;56.80;;;;;;6232338;28;82805;-63
2022/05/24 11:06:25;;;;;;;28.10;11.95;;;23.70;56.50;;;;;;6232980;28;83528;-64
2022/05/24 11:09:26;;;;;;;26.40;11.63;;;23.70;56.80;;;;;;6231373;28;85725;-63
2022/05/24 11:12:26;;;;;;;29.02;11.25;;;23.70;56.30;;;;;;6231013;28;83021;-64
2022/05/24 11:15:32;;;;;;;31.23;11.48;;;23.70;56.20;;;;;;6210586;28;84207;-63
2022/05/24 11:18:33;;;;;;;31.90;10.35;;;23.70;56.10;;;;;;6229605;28;84672;-64
2022/05/24 11:21:33;;;;;;;25.63;10.43;;;23.70;56.20;;;;;;6231632;28;83420;-63
2022/05/24 11:24:34;;;;;;;26.38;10.90;;;23.70;56.10;;;;;;6231319;28;83150;-64
2022/05/24 11:27:34;;;;;;;28.38;10.18;;;23.70;55.90;;;;;;6231376;28;83214;-63
2022/05/24 11:30:35;;;;;;;25.40;9.60;;;23.70;56.20;;;;;;6231135;28;83106;-63
2022/05/24 11:33:35;;;;;;;23.27;9.15;;;23.60;56.40;;;;;;6234373;28;81707;-63
2022/05/24 11:36:36;;;;;;;21.90;8.70;;;23.50;56.50;;;;;;6232736;28;81599;-63
2022/05/24 11:39:37;;;;;;;17.42;9.13;;;23.50;56.60;;;;;;6230861;28;81143;-64
2022/05/24 11:42:37;;;;;;;26.00;8.50;;;23.50;56.70;;;;;;6229674;28;80525;-63
2022/05/24 11:45:38;;;;;;;20.40;7.30;;;23.60;56.60;;;;;;6231480;28;80434;-63
2022/05/24 11:48:38;;;;;;;24.92;8.50;;;23.70;56.10;;;;;;6234258;28;80505;-63
2022/05/24 11:51:39;;;;;;;21.38;6.35;;;23.70;55.80;;;;;;6233115;28;81173;-64
2022/05/24 11:54:39;;;;;;;15.38;6.40;;;23.70;55.80;;;;;;6234453;28;80314;-62
2022/05/24 11:57:40;;;;;;;14.52;6.72;;;23.70;55.50;;;;;;6233961;28;80381;-63
2022/05/24 12:00:41;;;;;;;20.13;6.88;;;23.80;55.70;;;;;;6215767;28;80800;-63
2022/05/24 12:10:20;;;;;;;11.35;4.40;;;23.60;54.60;;;;;;6232717;28;80510;-66
2022/05/24 12:13:21;;;;;;;9.75;4.80;;;23.60;54.80;;;;;;6227153;28;86814;-65
2022/05/24 12:16:21;;;;;;;17.50;4.95;;;23.60;54.60;;;;;;6232764;28;80569;-63
2022/05/24 12:19:22;;;;;;;5.90;4.13;;;23.60;54.50;;;;;;6233514;28;80827;-64
2022/05/24 12:22:26;;;;;;;10.00;3.90;;;23.60;54.20;;;;;;6211933;28;81409;-63
2022/05/24 12:25:27;;;;;;;8.70;4.18;;;23.60;54.20;;;;;;6234080;28;80420;-63
2022/05/24 12:28:27;;;;;;;21.63;4.30;;;23.60;53.60;;;;;;6216585;28;80762;-64
2022/05/24 12:31:28;;;;;;;6.53;3.55;;;23.60;53.30;;;;;;6215953;28;80639;-63
2022/05/24 12:34:28;;;;;;;7.55;3.60;;;23.60;53.20;;;;;;6234807;28;80618;-64
2022/05/24 12:37:29;;;;;;;6.18;3.50;;;23.70;53.00;;;;;;6234614;28;80577;-63
2022/05/24 12:40:29;;;;;;;8.60;3.63;;;23.70;52.80;;;;;;6234595;28;80406;-65
2022/05/24 12:43:30;;;;;;;6.40;3.20;;;23.70;52.80;;;;;;6234464;28;80597;-65
2022/05/24 12:46:30;;;;;;;6.28;3.13;;;23.70;52.70;;;;;;6233943;28;81070;-66
2022/05/24 12:49:31;;;;;;;13.48;3.67;;;23.70;52.80;;;;;;6234532;28;85628;-70
2022/05/24 12:52:31;;;;;;;10.50;2.92;;;23.70;52.90;;;;;;6233974;28;81505;-66
2022/05/24 12:56:15;;;;;;;8.88;3.03;;;23.70;53.00;;;;;;6233267;28;80148;-66
2022/05/24 12:58:57;;;;;;;9.07;3.33;;;23.70;53.00;;;;;;6226736;28;81187;-65
2022/05/24 13:01:57;;;;;;;9.70;3.45;;;23.70;53.10;;;;;;6211595;28;81425;-65
2022/05/24 13:04:58;;;;;;;9.23;3.08;;;23.70;53.10;;;;;;6231460;28;80295;-65
2022/05/24 13:08:00;;;;;;;9.02;3.28;;;23.70;53.10;;;;;;6231685;28;81250;-65
2022/05/24 13:11:01;;;;;;;17.55;3.60;;;23.70;53.10;;;;;;6230764;28;80961;-68
2022/05/24 13:14:01;;;;;;;8.43;3.08;;;23.70;53.70;;;;;;6233239;28;80609;-67
2022/05/24 13:17:03;;;;;;;7.63;3.38;;;23.70;53.40;;;;;;6225448;28;80435;-68
2022/05/24 13:20:03;;;;;;;5.88;3.13;;;23.70;53.30;;;;;;6230264;28;80652;-68
2022/05/24 13:23:04;;;;;;;6.35;3.03;;;23.70;53.20;;;;;;6233523;28;80904;-67
2022/05/24 13:26:04;;;;;;;5.55;3.38;;;23.70;53.10;;;;;;6233177;28;80347;-66
2022/05/24 13:29:05;;;;;;;12.32;3.35;;;23.60;53.10;;;;;;6233895;28;80570;-69
2022/05/24 13:35:24;;;;;;;3.53;2.90;;;23.70;53.20;;;;;;6233600;28;80875;-68
2022/05/24 13:38:26;;;;;;;4.97;2.67;;;23.60;53.20;;;;;;6233663;28;80870;-68
2022/05/24 13:41:27;;;;;;;3.53;2.58;;;23.70;53.20;;;;;;6233442;28;80376;-68
2022/05/24 13:44:28;;;;;;;5.03;2.90;;;23.70;53.30;;;;;;6233572;28;80613;-67
2022/05/24 13:47:29;;;;;;;5.45;3.17;;;23.60;53.30;;;;;;6233271;28;80613;-67
2022/05/24 13:50:29;;;;;;;5.28;2.50;;;23.60;53.20;;;;;;6233128;28;81481;-68
2022/05/24 13:53:30;;;;;;;5.95;2.58;;;23.60;53.20;;;;;;6232681;28;80293;-67
2022/05/24 13:56:31;;;;;;;4.90;2.40;;;23.60;53.20;;;;;;6223851;28;80248;-67
2022/05/24 13:59:32;;;;;;;9.00;2.95;;;23.70;53.20;;;;;;6233799;27;80397;-68
2022/05/24 14:02:32;;;;;;;7.28;3.92;;;23.60;53.10;;;;;;6215692;28;80409;-67
2022/05/24 14:05:33;;;;;;;8.23;2.92;;;23.60;53.10;;;;;;6232728;28;80737;-70
2022/05/24 14:08:33;;;;;;;6.38;3.33;;;23.60;53.00;;;;;;6233201;28;80851;-67
2022/05/24 14:11:34;;;;;;;90.20;38.20;;;23.60;53.40;;;;;;6232911;28;80562;-67
2022/05/24 14:14:39;;;;;;;183.00;76.82;;;23.60;53.70;;;;;;6230233;28;83234;-67
2022/05/24 14:17:40;;;;;;;389.27;168.60;;;23.60;53.70;;;;;;6229687;28;83184;-65
2022/05/24 14:20:40;;;;;;;306.75;129.07;;;23.50;54.20;;;;;;6208091;28;85505;-66
2022/05/24 14:23:41;;;;;;;646.53;318.20;;;23.60;54.00;;;;;;6226028;28;86023;-65
2022/05/24 14:26:42;;;;;;;476.20;212.52;;;23.50;54.60;;;;;;6226522;28;85575;-65
2022/05/24 14:29:45;;;;;;;531.70;246.82;;;23.60;54.60;;;;;;6225838;28;86043;-64
2022/05/24 14:32:45;;;;;;;389.95;165.30;;;23.60;54.50;;;;;;6226294;28;85489;-65
2022/05/24 14:35:46;;;;;;;296.08;128.70;;;23.60;54.30;;;;;;6226431;28;85883;-65
2022/05/24 14:38:47;;;;;;;300.00;128.50;;;23.60;54.20;;;;;;6207997;28;88333;-65
2022/05/24 14:41:47;;;;;;;282.38;119.22;;;23.70;53.80;;;;;;6226628;28;90983;-65
2022/05/24 14:44:48;;;;;;;274.65;111.97;;;23.70;53.60;;;;;;6225899;28;86431;-65
2022/05/24 14:47:48;;;;;;;233.68;102.20;;;23.70;53.50;;;;;;6226276;28;85243;-65
2022/05/24 14:50:49;;;;;;;235.20;95.88;;;23.70;53.50;;;;;;6226508;28;86137;-66
2022/05/24 14:53:49;;;;;;;218.07;88.72;;;23.70;53.50;;;;;;6228531;28;86993;-64
2022/05/24 14:56:50;;;;;;;208.45;89.47;;;23.70;53.40;;;;;;6229372;28;83134;-63
2022/05/24 14:59:51;;;;;;;185.38;83.38;;;23.70;53.50;;;;;;6229156;28;83031;-67
2022/05/24 15:02:51;;;;;;;182.90;79.97;;;23.70;53.90;;;;;;6227852;28;83452;-65
2022/05/24 15:05:52;;;;;;;171.40;72.68;;;23.70;54.20;;;;;;6223495;28;84237;-67
2022/05/24 15:15:31;;;;;;;190.68;81.60;;;23.70;54.50;;;;;;6218704;28;86115;-66
2022/05/24 15:18:31;;;;;;;362.77;156.48;;;23.70;55.50;;;;;;6230362;28;83635;-67
2022/05/24 15:21:32;;;;;;;476.13;212.68;;;23.70;56.00;;;;;;6229581;28;85315;-69
2022/05/24 15:24:32;;;;;;;545.38;257.23;;;23.70;56.70;;;;;;6229715;28;85306;-66
2022/05/24 15:27:33;;;;;;;587.40;289.75;;;23.70;57.60;;;;;;6231439;28;85724;-66
2022/05/24 15:30:34;;;;;;;552.85;267.45;;;23.70;58.40;;;;;;6229058;28;85523;-66
2022/05/24 15:33:34;;;;;;;448.10;205.93;;;23.70;57.90;;;;;;6229323;28;85648;-64
2022/05/24 15:36:35;;;;;;;455.40;198.15;;;23.70;57.50;;;;;;6228542;28;85889;-63
2022/05/24 15:39:36;;;;;;;442.92;185.80;;;23.80;57.90;;;;;;6227838;28;86716;-63
2022/05/24 15:42:36;;;;;;;402.15;174.35;;;23.80;58.00;;;;;;6228386;28;85930;-65
2022/05/24 15:45:38;;;;;;;361.33;155.48;;;23.90;57.70;;;;;;6227956;28;86432;-63
2022/05/24 15:48:38;;;;;;;329.55;136.07;;;23.90;57.80;;;;;;6228338;28;85898;-67
2022/05/24 15:51:39;;;;;;;318.10;133.18;;;23.90;57.90;;;;;;6220756;28;85637;-64
2022/05/24 15:54:40;;;;;;;265.48;115.45;;;23.80;57.60;;;;;;6225420;28;85725;-65
2022/05/24 15:57:41;;;;;;;263.63;112.43;;;23.80;57.80;;;;;;6221174;28;86059;-66
2022/05/24 16:00:42;;;;;;;249.50;105.63;;;23.80;57.80;;;;;;6221800;28;87281;-67
2022/05/24 16:03:43;;;;;;;230.73;99.85;;;23.90;57.70;;;;;;6228822;28;86584;-71
2022/05/24 16:10:02;;;;;;;185.13;83.53;;;23.80;57.10;;;;;;6232254;27;85674;-66
2022/05/24 16:13:03;;;;;;;192.18;79.65;;;23.70;57.20;;;;;;6225104;28;83942;-69
2022/05/24 16:16:06;;;;;;;165.05;70.03;;;23.80;57.20;;;;;;6230971;28;84155;-65
2022/05/24 16:19:06;;;;;;;169.70;71.20;;;23.80;57.00;;;;;;6230698;28;83673;-66
2022/05/24 16:22:07;;;;;;;154.77;67.60;;;23.80;57.00;;;;;;6230494;28;83398;-64
2022/05/24 16:25:07;;;;;;;138.95;61.30;;;23.80;57.30;;;;;;6213484;28;86060;-65
2022/05/24 16:28:08;;;;;;;140.27;62.08;;;23.70;57.70;;;;;;6232062;27;83383;-65
2022/05/24 16:31:08;;;;;;;133.70;55.92;;;23.70;57.80;;;;;;6203829;28;83353;-66